Time;durP1;ratioP1;P1;durP2;ratioP2;P2;SDS_P1;SDS_P2;PMS_P1;PMS_P2;Temp;Humidity;BMP_temperature;BMP_pressure;BME280_temperature;BME280_humidity;BME280_pressure;Samples;Min_cycle;Max_cycle;Signal;HPM_P1;HPM_P2
2023/07/18 00:00:37;;;;;;;12.00;5.38;;;15.40;99.90;;;;;;4991102;28;20249;-59
2023/07/18 00:03:04;;;;;;;10.77;4.53;;;15.40;99.90;;;;;;5005428;28;20575;-59
2023/07/18 00:05:35;;;;;;;11.10;4.15;;;15.40;99.90;;;;;;4988450;28;20369;-59
2023/07/18 00:08:01;;;;;;;12.73;4.93;;;15.40;99.90;;;;;;4982981;28;20067;-60
2023/07/18 00:10:27;;;;;;;11.82;4.53;;;15.30;99.90;;;;;;4973070;28;20041;-58
2023/07/18 00:12:52;;;;;;;9.93;5.25;;;15.30;99.90;;;;;;4991958;28;20046;-60
2023/07/18 00:15:18;;;;;;;11.32;4.28;;;15.30;99.90;;;;;;4991663;28;20041;-59
2023/07/18 00:17:44;;;;;;;9.05;4.30;;;15.40;99.90;;;;;;5003799;28;20042;-59
2023/07/18 00:20:18;;;;;;;9.82;5.20;;;15.30;99.90;;;;;;4983118;28;20044;-60
2023/07/18 00:22:48;;;;;;;15.80;5.40;;;15.30;99.90;;;;;;4967605;28;20037;-59
2023/07/18 00:25:16;;;;;;;12.73;4.65;;;15.30;99.90;;;;;;4987589;28;20410;-60
2023/07/18 00:27:42;;;;;;;11.07;5.30;;;15.30;99.90;;;;;;4980743;28;20040;-60
2023/07/18 00:30:12;;;;;;;13.20;5.75;;;15.30;99.90;;;;;;4986786;28;20036;-58
2023/07/18 00:32:38;;;;;;;11.32;3.97;;;15.30;99.90;;;;;;4986550;28;20092;-58
2023/07/18 00:35:04;;;;;;;14.32;5.15;;;15.20;99.90;;;;;;4984140;28;20041;-58
2023/07/18 00:37:31;;;;;;;10.52;4.80;;;15.20;99.90;;;;;;4990006;28;20496;-59
2023/07/18 00:39:57;;;;;;;13.23;5.22;;;15.20;99.90;;;;;;4985277;28;20084;-58
2023/07/18 00:42:23;;;;;;;9.07;4.85;;;15.20;99.90;;;;;;4991517;28;20073;-59
2023/07/18 00:44:50;;;;;;;15.13;4.95;;;15.20;99.90;;;;;;4973251;28;20582;-58
2023/07/18 00:47:20;;;;;;;11.00;5.18;;;15.20;99.90;;;;;;4983697;28;20045;-58
2023/07/18 00:49:46;;;;;;;13.07;5.32;;;15.20;99.90;;;;;;4986648;28;20041;-58
2023/07/18 00:52:13;;;;;;;17.38;5.63;;;15.20;99.90;;;;;;4985289;28;20552;-58
2023/07/18 00:54:39;;;;;;;13.35;5.05;;;15.20;99.90;;;;;;4986810;28;20061;-57
2023/07/18 00:57:07;;;;;;;9.98;3.95;;;15.20;99.90;;;;;;4983474;28;20034;-58
2023/07/18 00:59:33;;;;;;;11.27;3.95;;;15.20;99.90;;;;;;4986652;28;20124;-59
2023/07/18 01:01:59;;;;;;;11.18;5.15;;;15.20;99.90;;;;;;4986763;28;20050;-59
2023/07/18 01:04:24;;;;;;;10.43;4.55;;;15.10;99.90;;;;;;4983443;28;20050;-56
2023/07/18 01:06:52;;;;;;;13.80;3.95;;;15.20;99.90;;;;;;4983186;28;20134;-59
2023/07/18 01:09:18;;;;;;;9.35;4.40;;;15.10;99.90;;;;;;4986889;28;20057;-59
2023/07/18 01:11:44;;;;;;;7.97;3.90;;;15.10;99.90;;;;;;4986550;28;20037;-59
2023/07/18 01:14:10;;;;;;;12.80;4.60;;;15.10;99.90;;;;;;4990108;28;20038;-58
2023/07/18 01:16:36;;;;;;;7.30;4.13;;;15.10;99.90;;;;;;4989648;28;20209;-59
2023/07/18 01:19:02;;;;;;;9.40;4.10;;;15.10;99.90;;;;;;4984744;28;20045;-60
2023/07/18 01:21:28;;;;;;;10.90;5.20;;;15.00;99.90;;;;;;5005291;28;21857;-60
2023/07/18 01:23:53;;;;;;;11.40;4.80;;;15.00;99.90;;;;;;5004786;28;20045;-59
2023/07/18 01:26:19;;;;;;;10.85;4.80;;;15.00;99.90;;;;;;4970096;28;20046;-59
2023/07/18 01:28:45;;;;;;;12.27;4.57;;;15.00;99.90;;;;;;4969056;28;20034;-57
2023/07/18 01:31:11;;;;;;;10.88;4.30;;;15.00;99.90;;;;;;4971257;28;20458;-59
2023/07/18 01:33:37;;;;;;;13.65;4.65;;;14.90;99.90;;;;;;4988108;28;20068;-58
2023/07/18 01:36:03;;;;;;;9.88;4.00;;;14.90;99.90;;;;;;4984635;28;20042;-59
2023/07/18 01:38:31;;;;;;;9.48;3.95;;;14.90;99.90;;;;;;5005818;28;20045;-60
2023/07/18 01:40:58;;;;;;;12.15;3.72;;;14.90;99.90;;;;;;4984302;28;20041;-59
2023/07/18 01:43:24;;;;;;;11.60;4.15;;;14.70;99.90;;;;;;4999341;28;20156;-59
2023/07/18 01:45:50;;;;;;;10.60;4.38;;;14.80;99.90;;;;;;4967818;28;20050;-58
2023/07/18 01:48:16;;;;;;;9.20;3.95;;;14.80;99.90;;;;;;4985191;28;20405;-58
2023/07/18 01:50:43;;;;;;;12.48;4.32;;;14.80;99.90;;;;;;4987880;28;20115;-59
2023/07/18 01:53:10;;;;;;;13.13;4.53;;;14.80;99.90;;;;;;5004769;28;20377;-59
2023/07/18 01:55:37;;;;;;;15.50;4.80;;;14.70;99.90;;;;;;4992567;28;20049;-59
2023/07/18 01:58:03;;;;;;;13.35;5.28;;;14.70;99.90;;;;;;4987148;28;20049;-59
2023/07/18 02:00:30;;;;;;;16.85;4.50;;;14.80;99.90;;;;;;4982158;28;20077;-60
2023/07/18 02:02:57;;;;;;;12.52;4.07;;;14.80;99.90;;;;;;5001397;28;20265;-58
2023/07/18 02:05:28;;;;;;;12.63;4.30;;;14.80;99.90;;;;;;4989188;28;20053;-59
2023/07/18 02:07:54;;;;;;;16.25;5.75;;;14.80;99.90;;;;;;4994308;28;20555;-58
2023/07/18 02:10:21;;;;;;;12.38;5.63;;;14.80;99.90;;;;;;4987970;28;20041;-58
2023/07/18 02:12:52;;;;;;;12.25;4.80;;;14.80;99.90;;;;;;4992050;28;20045;-60
2023/07/18 02:15:19;;;;;;;12.60;4.38;;;14.80;99.90;;;;;;4983259;28;20046;-59
2023/07/18 02:17:45;;;;;;;15.45;4.95;;;14.80;99.90;;;;;;4991260;28;20072;-57
2023/07/18 02:20:12;;;;;;;10.10;3.97;;;14.90;99.90;;;;;;4987744;28;20123;-58
2023/07/18 02:22:40;;;;;;;16.77;5.75;;;14.90;99.90;;;;;;5002794;28;20128;-59
2023/07/18 02:25:06;;;;;;;10.52;4.32;;;14.90;99.90;;;;;;4987159;28;20040;-59
2023/07/18 02:27:39;;;;;;;9.90;4.22;;;14.90;99.90;;;;;;4971312;28;20429;-60
2023/07/18 02:30:10;;;;;;;13.98;4.85;;;14.90;99.90;;;;;;4993564;28;20037;-59
2023/07/18 02:32:36;;;;;;;12.40;4.82;;;14.90;99.90;;;;;;4968082;28;20492;-60
2023/07/18 02:35:02;;;;;;;13.60;5.00;;;14.90;99.90;;;;;;4981294;28;20068;-59
2023/07/18 02:37:28;;;;;;;15.73;4.88;;;14.90;99.90;;;;;;4986043;28;20390;-57
2023/07/18 02:39:54;;;;;;;15.15;5.70;;;14.90;99.90;;;;;;4969021;28;20038;-60
2023/07/18 02:42:20;;;;;;;11.48;4.85;;;14.90;99.90;;;;;;4981641;28;20053;-60
2023/07/18 02:44:47;;;;;;;11.30;4.68;;;14.80;99.90;;;;;;4982257;28;20097;-58
2023/07/18 02:47:13;;;;;;;9.75;4.60;;;14.80;99.90;;;;;;4969265;28;20038;-60
2023/07/18 02:49:40;;;;;;;13.95;4.38;;;14.80;99.90;;;;;;4990622;28;20452;-60
2023/07/18 02:52:06;;;;;;;12.50;4.97;;;14.80;99.90;;;;;;4990914;28;20030;-60
2023/07/18 02:54:32;;;;;;;13.23;4.75;;;14.80;99.90;;;;;;4970569;28;20045;-59
2023/07/18 02:56:58;;;;;;;11.40;4.15;;;14.80;99.90;;;;;;4991094;28;20038;-60
2023/07/18 02:59:25;;;;;;;17.63;5.65;;;14.80;99.90;;;;;;4995665;28;20073;-58
2023/07/18 03:01:54;;;;;;;15.63;5.32;;;14.80;99.90;;;;;;4986503;28;20046;-59
2023/07/18 03:04:30;;;;;;;11.50;4.75;;;14.80;99.90;;;;;;4987735;28;20050;-58
2023/07/18 03:06:57;;;;;;;12.05;4.20;;;14.80;99.90;;;;;;4994114;28;20046;-60
2023/07/18 03:09:23;;;;;;;15.98;5.45;;;14.70;99.90;;;;;;4997174;28;20042;-59
2023/07/18 03:11:52;;;;;;;17.83;5.78;;;14.80;99.90;;;;;;4981427;28;20041;-60
2023/07/18 03:14:18;;;;;;;14.90;5.30;;;14.70;99.90;;;;;;4978833;28;20038;-59
2023/07/18 03:16:45;;;;;;;13.85;5.50;;;14.80;99.90;;;;;;4985345;28;20050;-58
2023/07/18 03:19:11;;;;;;;11.73;4.90;;;14.80;99.90;;;;;;5000569;28;20041;-59
2023/07/18 03:21:37;;;;;;;12.63;4.40;;;14.70;99.90;;;;;;4985575;28;20468;-59
2023/07/18 03:24:07;;;;;;;14.82;5.68;;;14.70;99.90;;;;;;4949178;28;20138;-59
2023/07/18 03:26:36;;;;;;;15.18;5.25;;;14.70;99.90;;;;;;4968031;28;20042;-60
2023/07/18 03:29:04;;;;;;;15.88;5.75;;;14.80;99.90;;;;;;5014002;28;20143;-59
2023/07/18 03:31:30;;;;;;;14.68;4.95;;;14.70;99.90;;;;;;4985179;28;20433;-59
2023/07/18 03:33:55;;;;;;;9.43;4.53;;;14.80;99.90;;;;;;4999756;28;20034;-59
2023/07/18 03:36:21;;;;;;;19.27;5.15;;;14.80;99.90;;;;;;4994229;28;20505;-59
2023/07/18 03:38:47;;;;;;;18.30;6.85;;;14.80;99.90;;;;;;4976559;28;20042;-59
2023/07/18 03:41:13;;;;;;;15.77;5.13;;;14.80;99.90;;;;;;4981184;28;20077;-59
2023/07/18 03:43:38;;;;;;;12.57;5.00;;;14.70;99.90;;;;;;4986498;28;20128;-59
2023/07/18 03:46:04;;;;;;;11.93;5.65;;;14.80;99.90;;;;;;4989015;28;20496;-59
2023/07/18 03:48:30;;;;;;;12.98;5.15;;;14.80;99.90;;;;;;5004943;28;20042;-59
2023/07/18 03:50:55;;;;;;;10.43;4.40;;;14.80;99.90;;;;;;4985053;28;20057;-58
2023/07/18 03:53:22;;;;;;;16.35;5.55;;;14.80;99.90;;;;;;4987312;28;20390;-59
2023/07/18 03:55:48;;;;;;;13.93;4.60;;;14.80;99.90;;;;;;4991152;28;20045;-59
2023/07/18 03:58:14;;;;;;;13.90;5.22;;;14.80;99.90;;;;;;4974069;28;20474;-58
2023/07/18 04:00:39;;;;;;;9.70;4.32;;;14.80;99.90;;;;;;4983703;28;20038;-59
2023/07/18 04:03:05;;;;;;;13.32;5.20;;;14.80;99.90;;;;;;4980833;28;20234;-59
2023/07/18 04:05:31;;;;;;;10.00;4.40;;;14.90;99.90;;;;;;4997873;28;20041;-58
2023/07/18 04:07:56;;;;;;;11.48;4.38;;;14.90;99.90;;;;;;4980841;28;20095;-58
2023/07/18 04:10:22;;;;;;;20.38;6.22;;;14.90;99.90;;;;;;4986444;28;20060;-59
2023/07/18 04:12:48;;;;;;;13.63;5.03;;;15.00;99.90;;;;;;4990772;28;20030;-59
2023/07/18 04:15:14;;;;;;;15.30;5.10;;;15.00;99.90;;;;;;4971747;28;20069;-59
2023/07/18 04:17:40;;;;;;;13.25;5.20;;;15.10;99.90;;;;;;5006818;28;20436;-59
2023/07/18 04:20:07;;;;;;;14.80;4.25;;;15.10;99.90;;;;;;4987529;28;20034;-58
2023/07/18 04:22:32;;;;;;;15.07;5.30;;;15.10;99.90;;;;;;5003533;28;20042;-59
2023/07/18 04:24:58;;;;;;;12.73;5.43;;;15.20;99.90;;;;;;4988388;28;20048;-59
2023/07/18 04:27:26;;;;;;;13.50;5.05;;;15.20;99.90;;;;;;4976383;28;20455;-59
2023/07/18 04:29:53;;;;;;;13.95;5.22;;;15.30;99.90;;;;;;4994377;28;20405;-56
2023/07/18 04:32:19;;;;;;;14.88;4.45;;;15.30;99.90;;;;;;4993113;28;20155;-60
2023/07/18 04:35:16;;;;;;;15.63;5.88;;;15.30;99.90;;;;;;4985802;28;20139;-58
2023/07/18 04:37:42;;;;;;;10.73;4.75;;;15.40;99.90;;;;;;5007885;28;20038;-57
2023/07/18 04:40:09;;;;;;;16.30;5.25;;;15.40;99.90;;;;;;4974540;28;20049;-59
2023/07/18 04:42:37;;;;;;;17.00;6.05;;;15.40;99.90;;;;;;4987860;28;20041;-59
2023/07/18 04:45:06;;;;;;;21.40;5.78;;;15.50;99.90;;;;;;5005476;28;20619;-59
2023/07/18 04:47:32;;;;;;;14.82;5.72;;;15.50;99.90;;;;;;4988242;28;20053;-59
2023/07/18 04:49:57;;;;;;;13.10;5.38;;;15.60;99.90;;;;;;4988556;28;20521;-59
2023/07/18 04:52:24;;;;;;;17.23;5.78;;;15.60;99.90;;;;;;4989402;28;20108;-58
2023/07/18 04:54:49;;;;;;;16.33;5.65;;;15.60;99.90;;;;;;4994503;28;20042;-57
2023/07/18 04:57:17;;;;;;;20.65;5.93;;;15.70;99.90;;;;;;5008806;28;20379;-57
2023/07/18 04:59:43;;;;;;;15.30;5.30;;;15.70;99.90;;;;;;5001912;28;20054;-59
2023/07/18 05:02:09;;;;;;;15.82;5.07;;;15.80;99.90;;;;;;4992806;28;20400;-59
2023/07/18 05:04:34;;;;;;;18.90;7.13;;;15.80;99.90;;;;;;5000606;28;20037;-59
2023/07/18 05:07:00;;;;;;;18.70;6.20;;;15.90;99.90;;;;;;4985918;28;20097;-59
2023/07/18 05:09:28;;;;;;;15.25;6.28;;;15.90;99.90;;;;;;4986407;28;20309;-58
2023/07/18 05:11:54;;;;;;;14.13;5.82;;;15.90;99.90;;;;;;5001569;28;20068;-58
2023/07/18 05:14:19;;;;;;;12.73;5.13;;;16.00;99.90;;;;;;4997527;28;20046;-59
2023/07/18 05:16:45;;;;;;;16.75;5.85;;;16.00;99.90;;;;;;4986760;28;20041;-59
2023/07/18 05:19:11;;;;;;;11.98;5.00;;;16.10;99.90;;;;;;4995068;28;20041;-59
2023/07/18 05:21:36;;;;;;;18.20;5.97;;;16.10;99.90;;;;;;4986122;28;20037;-58
2023/07/18 05:24:02;;;;;;;17.60;6.43;;;16.20;99.90;;;;;;5005027;28;20038;-58
2023/07/18 05:26:28;;;;;;;14.60;6.57;;;16.20;99.90;;;;;;4986286;28;20124;-58
2023/07/18 05:28:54;;;;;;;24.15;6.85;;;16.20;99.90;;;;;;4963729;28;20042;-59
2023/07/18 05:31:20;;;;;;;15.38;5.95;;;16.30;99.90;;;;;;4979522;28;20041;-59
2023/07/18 05:33:46;;;;;;;17.42;6.40;;;16.30;99.90;;;;;;4999969;28;20049;-60
2023/07/18 05:36:12;;;;;;;18.88;6.03;;;16.30;99.90;;;;;;4951451;28;20041;-60
2023/07/18 05:38:37;;;;;;;15.25;6.22;;;16.40;99.90;;;;;;4953492;28;20037;-59
2023/07/18 05:41:03;;;;;;;13.95;6.25;;;16.40;99.90;;;;;;4968170;28;20513;-59
2023/07/18 05:43:29;;;;;;;19.38;7.35;;;16.40;99.90;;;;;;4985118;28;20042;-57
2023/07/18 05:45:54;;;;;;;17.98;6.97;;;16.40;99.90;;;;;;4986894;28;20154;-58
2023/07/18 05:48:20;;;;;;;20.65;8.00;;;16.50;99.90;;;;;;4952859;28;20038;-59
2023/07/18 05:50:46;;;;;;;18.77;7.25;;;16.50;99.90;;;;;;5004233;28;20564;-59
2023/07/18 05:53:11;;;;;;;19.05;7.60;;;16.50;99.90;;;;;;5007000;28;20037;-59
2023/07/18 05:55:38;;;;;;;17.15;6.53;;;16.50;99.90;;;;;;4981451;28;20043;-60
2023/07/18 05:58:03;;;;;;;16.15;5.82;;;16.50;99.90;;;;;;4999473;28;20037;-59
2023/07/18 06:00:30;;;;;;;19.25;7.00;;;16.60;99.90;;;;;;4982514;28;20413;-59
2023/07/18 06:02:55;;;;;;;20.92;8.25;;;16.60;99.90;;;;;;4968827;28;20049;-59
2023/07/18 06:05:55;;;;;;;22.60;7.35;;;16.50;99.90;;;;;;4985384;28;20057;-58
2023/07/18 06:08:21;;;;;;;20.10;7.40;;;16.60;99.90;;;;;;5006747;28;20045;-59
2023/07/18 06:10:47;;;;;;;13.75;7.10;;;16.60;99.90;;;;;;4988667;28;20037;-59
2023/07/18 06:13:13;;;;;;;14.70;6.78;;;16.70;99.90;;;;;;4984168;28;20125;-59
2023/07/18 06:15:39;;;;;;;22.80;8.48;;;16.80;99.90;;;;;;4984433;28;20179;-59
2023/07/18 06:18:04;;;;;;;20.50;7.20;;;16.90;99.90;;;;;;4988394;28;20034;-59
2023/07/18 06:20:32;;;;;;;18.15;7.30;;;17.10;99.90;;;;;;4965534;28;20132;-58
2023/07/18 06:22:59;;;;;;;25.77;9.75;;;17.10;99.90;;;;;;4973525;28;20037;-59
2023/07/18 06:25:25;;;;;;;20.20;9.43;;;17.20;99.90;;;;;;4993206;28;20069;-59
2023/07/18 06:27:50;;;;;;;26.88;10.45;;;17.40;99.90;;;;;;4988837;28;20136;-59
2023/07/18 06:30:17;;;;;;;22.58;9.05;;;17.40;99.90;;;;;;4968581;28;20122;-60
2023/07/18 06:32:42;;;;;;;21.58;10.32;;;17.50;99.90;;;;;;4982990;28;20042;-59
2023/07/18 06:35:10;;;;;;;23.02;9.05;;;17.50;99.90;;;;;;4987609;28;20038;-60
2023/07/18 06:37:36;;;;;;;20.35;9.32;;;17.50;99.90;;;;;;5004592;28;20053;-59
2023/07/18 06:40:02;;;;;;;19.98;9.23;;;17.60;99.90;;;;;;4986342;28;20038;-59
2023/07/18 06:42:28;;;;;;;23.80;9.70;;;17.60;99.90;;;;;;4987649;28;20042;-59
2023/07/18 06:44:54;;;;;;;23.35;10.02;;;17.60;99.90;;;;;;4985248;28;20049;-57
2023/07/18 06:47:19;;;;;;;21.98;9.73;;;17.80;99.90;;;;;;5004862;28;20068;-59
2023/07/18 06:49:45;;;;;;;23.30;10.48;;;17.80;99.90;;;;;;4979039;28;20141;-59
2023/07/18 06:52:11;;;;;;;24.65;10.05;;;17.90;99.90;;;;;;4999242;28;20258;-60
2023/07/18 06:54:36;;;;;;;20.80;9.25;;;18.00;99.90;;;;;;4982398;28;20164;-59
2023/07/18 06:57:02;;;;;;;28.25;10.90;;;18.00;99.90;;;;;;4988638;28;20401;-59
2023/07/18 06:59:28;;;;;;;31.38;11.38;;;18.10;99.90;;;;;;4988481;28;20096;-60
2023/07/18 07:01:54;;;;;;;23.50;9.57;;;18.30;99.90;;;;;;4988248;28;20551;-58
2023/07/18 07:04:19;;;;;;;26.88;11.07;;;18.40;99.90;;;;;;5006888;28;20052;-59
2023/07/18 07:06:45;;;;;;;25.67;8.93;;;18.60;99.90;;;;;;4988513;28;20100;-59
2023/07/18 07:09:14;;;;;;;17.60;8.27;;;18.60;99.90;;;;;;4975889;28;20080;-59
2023/07/18 07:11:40;;;;;;;19.55;8.45;;;18.70;99.90;;;;;;4972188;28;20460;-59
2023/07/18 07:14:06;;;;;;;23.00;9.13;;;18.90;99.90;;;;;;4989872;28;20069;-59
2023/07/18 07:16:34;;;;;;;17.70;9.02;;;19.00;99.90;;;;;;4972941;28;20084;-57
2023/07/18 07:19:00;;;;;;;19.33;8.48;;;19.10;99.90;;;;;;4989194;28;20100;-58
2023/07/18 07:21:27;;;;;;;17.65;8.75;;;19.10;99.90;;;;;;4989964;28;20045;-57
2023/07/18 07:23:53;;;;;;;17.00;8.60;;;19.20;99.90;;;;;;4984872;28;20054;-58
2023/07/18 07:26:19;;;;;;;20.58;8.32;;;19.40;99.90;;;;;;4987760;28;20080;-58
2023/07/18 07:28:45;;;;;;;19.23;8.02;;;19.50;99.90;;;;;;4987101;28;20104;-58
2023/07/18 07:31:12;;;;;;;22.92;7.35;;;19.60;99.90;;;;;;4980763;28;20052;-58
2023/07/18 07:33:37;;;;;;;18.38;7.30;;;19.60;99.90;;;;;;4986799;28;20045;-58
2023/07/18 07:36:25;;;;;;;18.75;7.57;;;19.60;99.90;;;;;;4973509;28;20034;-58
2023/07/18 07:38:51;;;;;;;18.08;6.78;;;19.50;99.90;;;;;;4988433;28;20042;-57
2023/07/18 07:41:16;;;;;;;20.88;7.40;;;19.60;99.90;;;;;;4985652;28;20493;-57
2023/07/18 07:43:42;;;;;;;16.75;6.22;;;19.60;99.90;;;;;;4978585;28;20042;-58
2023/07/18 07:46:08;;;;;;;17.23;7.18;;;19.60;99.90;;;;;;4981046;28;20212;-58
2023/07/18 07:48:33;;;;;;;18.52;6.55;;;19.70;99.90;;;;;;4983260;28;20049;-58
2023/07/18 07:51:03;;;;;;;13.40;5.35;;;19.70;99.90;;;;;;4985839;28;20041;-58
2023/07/18 07:53:30;;;;;;;14.48;5.47;;;19.70;99.90;;;;;;5008446;28;20041;-57
2023/07/18 07:55:56;;;;;;;15.27;6.45;;;19.70;99.90;;;;;;4988967;28;20437;-58
2023/07/18 07:58:22;;;;;;;14.27;5.15;;;19.70;99.90;;;;;;4991283;28;20072;-58
2023/07/18 08:00:47;;;;;;;13.18;5.70;;;19.80;99.90;;;;;;4989507;28;20046;-59
2023/07/18 08:03:13;;;;;;;16.00;5.88;;;20.00;99.90;;;;;;4968406;28;20404;-58
2023/07/18 08:05:39;;;;;;;17.73;5.82;;;20.10;99.90;;;;;;4988718;28;20424;-60
2023/07/18 08:08:04;;;;;;;14.27;4.43;;;20.40;99.90;;;;;;4989452;28;20101;-58
2023/07/18 08:10:30;;;;;;;15.20;4.43;;;20.50;99.90;;;;;;4992535;28;20397;-58
2023/07/18 08:12:56;;;;;;;11.13;4.80;;;20.60;99.90;;;;;;4972009;28;20277;-58
2023/07/18 08:15:22;;;;;;;12.50;4.47;;;20.60;99.90;;;;;;4980077;28;20129;-58
2023/07/18 08:17:47;;;;;;;11.40;3.60;;;20.50;99.90;;;;;;4975288;28;20034;-58
2023/07/18 08:20:13;;;;;;;9.88;4.13;;;20.50;99.90;;;;;;4990673;28;20069;-58
2023/07/18 08:22:39;;;;;;;9.85;3.60;;;20.40;99.90;;;;;;4990721;28;20030;-58
2023/07/18 08:25:05;;;;;;;10.32;4.40;;;20.40;99.90;;;;;;4988273;28;20034;-57
2023/07/18 08:27:31;;;;;;;9.27;4.07;;;20.40;99.90;;;;;;4973287;28;20129;-58
2023/07/18 08:29:57;;;;;;;15.18;4.82;;;20.40;99.90;;;;;;4988091;28;20129;-55
2023/07/18 08:32:22;;;;;;;9.20;3.13;;;20.30;99.90;;;;;;4974204;28;20040;-57
2023/07/18 08:34:48;;;;;;;15.43;3.63;;;20.30;99.90;;;;;;4976479;28;20042;-57
2023/07/18 08:37:14;;;;;;;9.50;3.92;;;20.40;99.90;;;;;;4990867;28;20121;-56
2023/07/18 08:39:39;;;;;;;7.68;3.20;;;20.50;99.90;;;;;;4965618;28;20132;-57
2023/07/18 08:42:07;;;;;;;13.57;4.00;;;20.60;99.90;;;;;;4991826;28;20365;-58
2023/07/18 08:44:35;;;;;;;15.73;3.45;;;20.60;99.90;;;;;;4993285;28;20524;-57
2023/07/18 08:47:05;;;;;;;7.15;2.55;;;20.90;99.90;;;;;;4985148;28;20513;-57
2023/07/18 08:49:35;;;;;;;5.68;2.97;;;21.10;99.90;;;;;;4967126;28;20050;-58
2023/07/18 08:52:01;;;;;;;10.85;2.58;;;21.10;99.90;;;;;;4979299;28;20034;-57
2023/07/18 08:54:27;;;;;;;9.98;3.00;;;21.00;99.90;;;;;;5003697;28;20037;-58
2023/07/18 08:56:54;;;;;;;7.45;2.80;;;21.00;99.90;;;;;;4982465;28;20046;-58
2023/07/18 08:59:19;;;;;;;11.45;3.22;;;20.90;99.90;;;;;;4986048;28;20050;-58
2023/07/18 09:01:47;;;;;;;9.95;3.08;;;20.80;99.90;;;;;;4991237;28;20076;-58
2023/07/18 09:04:13;;;;;;;9.55;3.40;;;20.70;99.90;;;;;;4987854;28;20050;-57
2023/07/18 09:06:59;;;;;;;9.82;2.75;;;20.60;99.90;;;;;;4983227;28;20046;-57
2023/07/18 09:09:25;;;;;;;9.07;2.65;;;20.50;99.90;;;;;;4990178;28;20054;-58
2023/07/18 09:11:55;;;;;;;10.43;3.90;;;20.40;99.90;;;;;;4985200;28;20401;-58
2023/07/18 09:14:28;;;;;;;10.18;2.70;;;20.50;99.90;;;;;;4989051;28;20111;-58
2023/07/18 09:16:55;;;;;;;11.32;3.08;;;20.60;99.90;;;;;;4990109;28;20045;-57
2023/07/18 09:19:48;;;;;;;8.30;2.90;;;20.60;99.90;;;;;;5005255;28;20046;-58
2023/07/18 09:22:19;;;;;;;11.18;3.05;;;20.70;99.90;;;;;;4989906;28;20097;-58
2023/07/18 09:24:46;;;;;;;9.02;3.00;;;20.70;99.90;;;;;;4999690;28;20412;-57
2023/07/18 09:27:17;;;;;;;8.05;3.15;;;20.90;99.90;;;;;;4968552;28;20129;-58
2023/07/18 09:29:49;;;;;;;9.75;3.05;;;21.20;99.90;;;;;;4989674;28;20034;-58
2023/07/18 09:32:19;;;;;;;10.32;2.60;;;21.30;99.90;;;;;;4989408;28;20489;-57
2023/07/18 09:34:55;;;;;;;7.53;2.78;;;21.30;99.90;;;;;;4988059;28;20042;-58
2023/07/18 09:37:22;;;;;;;7.22;2.63;;;21.20;99.90;;;;;;4993744;28;20056;-58
2023/07/18 09:39:48;;;;;;;8.23;3.05;;;21.10;99.90;;;;;;4970960;28;20156;-57
2023/07/18 09:42:17;;;;;;;7.10;2.55;;;21.00;99.90;;;;;;4999856;28;20038;-58
2023/07/18 09:44:49;;;;;;;7.80;2.80;;;21.00;99.90;;;;;;4973481;28;20103;-58
2023/07/18 09:47:16;;;;;;;8.15;2.65;;;21.00;99.90;;;;;;4968489;28;20192;-58
2023/07/18 09:49:46;;;;;;;8.85;2.83;;;21.10;99.90;;;;;;4987828;28;20134;-58
2023/07/18 09:52:14;;;;;;;9.02;3.20;;;21.00;99.90;;;;;;4983693;28;20049;-58
2023/07/18 09:54:42;;;;;;;9.93;2.97;;;20.90;99.90;;;;;;5001911;28;20046;-57
2023/07/18 09:57:09;;;;;;;10.30;2.95;;;20.80;99.90;;;;;;5001662;28;20097;-58
2023/07/18 09:59:37;;;;;;;10.93;3.03;;;20.80;99.90;;;;;;4989599;28;20053;-57
2023/07/18 10:02:06;;;;;;;8.60;2.83;;;20.60;99.90;;;;;;5006349;28;20488;-57
2023/07/18 10:04:33;;;;;;;8.02;3.20;;;20.70;99.90;;;;;;4987280;28;20091;-56
2023/07/18 10:07:00;;;;;;;9.45;3.33;;;20.70;99.90;;;;;;4973789;28;20370;-58
2023/07/18 10:09:29;;;;;;;9.80;3.97;;;20.70;99.90;;;;;;4970053;28;20046;-58
2023/07/18 10:11:58;;;;;;;11.07;3.10;;;20.90;99.90;;;;;;4989497;28;20034;-58
2023/07/18 10:14:28;;;;;;;6.32;2.75;;;21.20;99.90;;;;;;4985375;28;20049;-55
2023/07/18 10:16:54;;;;;;;8.95;3.58;;;21.50;99.90;;;;;;4987770;28;20049;-58
2023/07/18 10:19:24;;;;;;;7.50;3.20;;;21.50;99.90;;;;;;4979321;28;20056;-58
2023/07/18 10:21:53;;;;;;;7.82;3.25;;;21.50;99.90;;;;;;4988398;28;20034;-58
2023/07/18 10:24:23;;;;;;;12.65;3.63;;;21.70;99.90;;;;;;4971733;28;20038;-58
2023/07/18 10:27:00;;;;;;;7.05;2.97;;;21.90;99.90;;;;;;4986787;28;20105;-58
2023/07/18 10:29:32;;;;;;;13.68;3.65;;;22.00;99.90;;;;;;5000334;28;20045;-56
2023/07/18 10:32:01;;;;;;;11.38;3.78;;;21.80;99.90;;;;;;4989362;28;20073;-54
2023/07/18 10:34:27;;;;;;;9.85;3.85;;;21.80;99.90;;;;;;4986217;28;20054;-58
2023/07/18 10:36:58;;;;;;;8.57;3.60;;;21.70;99.90;;;;;;4983231;28;20492;-58
2023/07/18 10:39:37;;;;;;;10.13;3.20;;;21.80;99.90;;;;;;4981188;28;20058;-57
2023/07/18 10:42:07;;;;;;;10.50;4.00;;;22.00;99.90;;;;;;4989788;28;20046;-57
2023/07/18 10:44:36;;;;;;;12.35;3.30;;;22.00;99.90;;;;;;4987899;28;20290;-57
2023/07/18 10:47:11;;;;;;;9.07;3.20;;;22.00;99.90;;;;;;4987117;28;20046;-57
2023/07/18 10:49:37;;;;;;;9.13;3.22;;;21.90;99.90;;;;;;4974164;28;20061;-57
2023/07/18 10:52:03;;;;;;;9.43;3.45;;;21.80;99.90;;;;;;4958852;28;20412;-58
2023/07/18 10:54:29;;;;;;;9.35;3.63;;;21.60;99.90;;;;;;4987041;28;20112;-57
2023/07/18 10:56:55;;;;;;;11.30;3.33;;;21.60;99.90;;;;;;4972649;28;20497;-58
2023/07/18 10:59:22;;;;;;;8.32;3.35;;;21.50;99.90;;;;;;4986771;28;20074;-56
2023/07/18 11:01:47;;;;;;;11.80;3.75;;;21.50;99.90;;;;;;4972105;28;20500;-57
2023/07/18 11:04:13;;;;;;;13.82;3.90;;;21.40;99.90;;;;;;4987738;28;20136;-56
2023/07/18 11:06:59;;;;;;;10.23;3.35;;;21.50;99.90;;;;;;4977130;28;20129;-58
2023/07/18 11:09:25;;;;;;;11.63;3.75;;;21.70;99.90;;;;;;4982307;28;20045;-56
2023/07/18 11:11:51;;;;;;;7.32;3.10;;;22.00;99.90;;;;;;4965648;28;20125;-58
2023/07/18 11:14:18;;;;;;;8.88;3.42;;;22.10;99.90;;;;;;4984903;28;20116;-57
2023/07/18 11:16:45;;;;;;;7.88;3.30;;;22.10;99.90;;;;;;4986533;28;20504;-57
2023/07/18 11:19:10;;;;;;;7.63;3.67;;;22.10;99.90;;;;;;4968052;28;20068;-57
2023/07/18 11:21:37;;;;;;;10.15;3.65;;;22.00;99.90;;;;;;4984779;28;20033;-57
2023/07/18 11:24:04;;;;;;;7.55;3.53;;;22.20;99.90;;;;;;5000036;28;20577;-57
2023/07/18 11:26:29;;;;;;;8.45;3.50;;;22.50;99.90;;;;;;4966039;28;20035;-56
2023/07/18 11:28:57;;;;;;;10.65;4.22;;;22.70;99.90;;;;;;4988016;28;20413;-57
2023/07/18 11:31:39;;;;;;;8.80;3.33;;;23.00;99.90;;;;;;4983562;28;20049;-57
2023/07/18 11:34:05;;;;;;;11.15;4.00;;;23.10;99.90;;;;;;4972325;28;20034;-56
2023/07/18 11:36:36;;;;;;;8.35;4.05;;;22.80;99.90;;;;;;4985510;28;20452;-57
2023/07/18 11:39:06;;;;;;;8.18;3.38;;;22.70;99.90;;;;;;4986123;28;20304;-57
2023/07/18 11:41:39;;;;;;;13.95;3.50;;;22.50;99.90;;;;;;4971054;28;20051;-58
2023/07/18 11:44:06;;;;;;;6.43;3.17;;;22.40;99.90;;;;;;5001103;28;20302;-58
2023/07/18 11:46:39;;;;;;;6.70;2.90;;;22.40;99.90;;;;;;4981935;28;20042;-58
2023/07/18 11:49:06;;;;;;;8.65;2.88;;;22.50;99.90;;;;;;4989385;28;20596;-57
2023/07/18 11:51:32;;;;;;;6.82;3.15;;;22.60;99.90;;;;;;4989731;28;20073;-57
2023/07/18 11:54:00;;;;;;;8.38;2.90;;;22.50;99.90;;;;;;4974565;28;20393;-56
2023/07/18 11:56:25;;;;;;;8.63;2.72;;;22.50;99.90;;;;;;5006174;28;20048;-56
2023/07/18 11:58:51;;;;;;;9.70;2.67;;;22.70;99.90;;;;;;4972482;28;20046;-56
2023/07/18 12:01:17;;;;;;;8.18;2.80;;;22.70;99.90;;;;;;4971334;28;20046;-57
2023/07/18 12:03:43;;;;;;;10.93;2.53;;;22.80;99.90;;;;;;4990225;28;20496;-58
2023/07/18 12:06:08;;;;;;;7.75;2.47;;;22.70;99.30;;;;;;5003318;28;20060;-58
2023/07/18 12:08:37;;;;;;;9.55;2.85;;;22.50;98.90;;;;;;4991267;28;20046;-58
2023/07/18 12:11:04;;;;;;;8.50;2.80;;;22.70;99.50;;;;;;4989417;28;20045;-57
2023/07/18 12:13:30;;;;;;;8.20;2.47;;;23.00;99.30;;;;;;4991206;28;20409;-58
2023/07/18 12:15:59;;;;;;;9.05;2.40;;;23.10;98.90;;;;;;4973493;28;20042;-57
2023/07/18 12:18:25;;;;;;;9.23;2.72;;;23.10;99.10;;;;;;4996258;28;20126;-58
2023/07/18 12:20:52;;;;;;;7.20;2.05;;;23.40;98.90;;;;;;4988001;28;20180;-58
2023/07/18 12:23:18;;;;;;;11.10;2.63;;;23.80;98.80;;;;;;4970875;28;20038;-57
2023/07/18 12:25:43;;;;;;;7.75;2.63;;;24.20;98.00;;;;;;4976153;28;20056;-58
2023/07/18 12:28:09;;;;;;;7.88;2.47;;;24.20;97.90;;;;;;4990676;28;20038;-58
2023/07/18 12:30:35;;;;;;;9.57;2.40;;;24.30;96.80;;;;;;5005191;28;20046;-58
2023/07/18 12:33:00;;;;;;;6.95;2.45;;;24.00;95.80;;;;;;4991740;28;20041;-58
2023/07/18 12:35:27;;;;;;;6.57;2.40;;;24.10;96.70;;;;;;4989084;28;20053;-58
2023/07/18 12:37:55;;;;;;;6.80;2.10;;;24.00;96.50;;;;;;4997279;28;20437;-57
2023/07/18 12:40:22;;;;;;;8.93;2.58;;;23.70;96.90;;;;;;4990037;28;20050;-58